createdAt,value
2023-08-08T00:00:50.677Z,14.26
2023-08-08T00:03:36.066Z,14.31
2023-08-08T00:06:04.923Z,14.32
2023-08-08T00:08:33.510Z,14.30
2023-08-08T00:11:02.220Z,14.31
2023-08-08T00:13:30.843Z,14.32
2023-08-08T00:15:59.441Z,14.33
2023-08-08T00:18:28.179Z,14.34
2023-08-08T00:20:56.753Z,14.39
2023-08-08T00:23:25.288Z,14.45
2023-08-08T00:25:53.863Z,14.50
2023-08-08T00:28:22.370Z,14.59
2023-08-08T00:30:51.067Z,14.67
2023-08-08T00:33:19.736Z,14.72
2023-08-08T00:35:48.342Z,14.78
2023-08-08T00:38:18.272Z,14.84
2023-08-08T00:40:47.467Z,14.89
2023-08-08T00:43:15.963Z,14.94
2023-08-08T00:45:45.993Z,14.93
2023-08-08T00:48:14.727Z,14.91
2023-08-08T00:50:45.961Z,14.90
2023-08-08T00:53:14.514Z,14.86
2023-08-08T00:55:44.560Z,14.79
2023-08-08T00:58:14.329Z,14.72
2023-08-08T01:00:43.480Z,14.64
2023-08-08T01:03:12.285Z,14.62
2023-08-08T01:05:55.850Z,14.60
2023-08-08T01:08:34.301Z,14.60
2023-08-08T01:11:03.962Z,14.60
2023-08-08T01:13:34.016Z,14.69
2023-08-08T01:16:04.714Z,14.76
2023-08-08T01:18:34.836Z,14.81
2023-08-08T01:21:05.082Z,14.79
2023-08-08T01:23:54.445Z,14.77
2023-08-08T01:26:23.713Z,14.76
2023-08-08T01:28:58.396Z,14.79
2023-08-08T01:31:26.903Z,14.83
2023-08-08T01:33:55.510Z,14.88
2023-08-08T01:36:41.565Z,14.93
2023-08-08T01:39:18.374Z,14.96
2023-08-08T01:41:49.335Z,14.97
2023-08-08T01:44:19.147Z,14.97
2023-08-08T01:46:48.785Z,14.96
2023-08-08T01:49:17.362Z,14.95
2023-08-08T01:51:45.967Z,14.91
2023-08-08T01:54:15.640Z,14.87
2023-08-08T01:56:44.286Z,14.88
2023-08-08T01:59:15.950Z,14.89
2023-08-08T02:01:45.317Z,14.90
2023-08-08T02:04:14.033Z,14.87
2023-08-08T02:06:42.626Z,14.84
2023-08-08T02:09:11.307Z,14.83
2023-08-08T02:11:40.530Z,14.84
2023-08-08T02:14:09.252Z,14.86
2023-08-08T02:16:37.921Z,14.87
2023-08-08T02:19:06.769Z,14.86
2023-08-08T02:21:35.329Z,14.84
2023-08-08T02:24:04.340Z,14.84
2023-08-08T02:26:34.145Z,14.83
2023-08-08T02:29:02.690Z,14.82
2023-08-08T02:31:31.448Z,14.83
2023-08-08T02:34:00.037Z,14.85
2023-08-08T02:36:28.596Z,14.88
2023-08-08T02:38:57.182Z,14.90
2023-08-08T02:41:25.827Z,14.88
2023-08-08T02:43:54.411Z,14.87
2023-08-08T02:46:23.187Z,14.83
2023-08-08T02:48:51.923Z,14.83
2023-08-08T02:51:20.634Z,14.79
2023-08-08T02:53:49.908Z,14.79
2023-08-08T02:56:18.822Z,14.82
2023-08-08T02:58:47.418Z,14.86
2023-08-08T03:01:17.303Z,14.88
2023-08-08T03:03:46.468Z,14.90
2023-08-08T03:06:15.937Z,14.91
2023-08-08T03:08:44.577Z,14.95
2023-08-08T03:11:13.215Z,15.00
2023-08-08T03:13:41.815Z,15.05
2023-08-08T03:16:10.744Z,15.08
2023-08-08T03:18:39.911Z,15.08
2023-08-08T03:21:08.502Z,15.08
2023-08-08T03:23:37.465Z,15.08
2023-08-08T03:26:06.134Z,15.07
2023-08-08T03:28:35.016Z,15.06
2023-08-08T03:31:04.601Z,15.10
2023-08-08T03:33:33.666Z,15.14
2023-08-08T03:36:02.480Z,15.19
2023-08-08T03:38:31.326Z,15.25
2023-08-08T03:41:00.237Z,15.30
2023-08-08T03:43:29.109Z,15.37
2023-08-08T03:45:58.635Z,15.42
2023-08-08T03:48:27.302Z,15.44
2023-08-08T03:50:55.945Z,15.48
2023-08-08T03:53:24.625Z,15.48
2023-08-08T03:55:53.347Z,15.51
2023-08-08T03:58:23.081Z,15.57
2023-08-08T04:00:51.788Z,15.61
2023-08-08T04:03:20.706Z,15.66
2023-08-08T04:05:49.389Z,15.69
2023-08-08T04:08:20.890Z,15.75
2023-08-08T04:10:49.788Z,15.83
2023-08-08T04:13:18.375Z,15.89
2023-08-08T04:15:47.114Z,15.91
2023-08-08T04:18:15.734Z,15.93
2023-08-08T04:20:44.719Z,15.95
2023-08-08T04:23:13.260Z,16.01
2023-08-08T04:25:41.973Z,16.08
2023-08-08T04:28:10.739Z,16.14
2023-08-08T04:30:39.362Z,16.22
2023-08-08T04:33:08.056Z,16.25
2023-08-08T04:35:36.980Z,16.26
2023-08-08T04:38:05.669Z,16.27
2023-08-08T04:40:35.155Z,16.33
2023-08-08T04:43:05.390Z,16.42
2023-08-08T04:45:34.876Z,16.48
2023-08-08T04:48:03.639Z,16.59
2023-08-08T04:50:32.344Z,16.72
2023-08-08T04:53:00.860Z,16.81
2023-08-08T04:55:29.437Z,16.88
2023-08-08T04:57:58.056Z,16.94
2023-08-08T05:00:28.195Z,16.99
2023-08-08T05:02:56.864Z,17.09
2023-08-08T05:05:25.802Z,17.18
2023-08-08T05:07:54.696Z,17.29
2023-08-08T05:10:24.407Z,17.45
2023-08-08T05:12:53.201Z,17.59
2023-08-08T05:15:22.101Z,17.71
2023-08-08T05:17:50.975Z,17.80
2023-08-08T05:20:19.888Z,17.88
2023-08-08T05:22:49.301Z,17.97
2023-08-08T05:25:18.046Z,18.06
2023-08-08T05:27:46.727Z,18.14
2023-08-08T05:30:15.420Z,18.21
2023-08-08T05:32:44.085Z,18.24
2023-08-08T05:35:12.729Z,18.29
2023-08-08T05:37:41.377Z,18.36
2023-08-08T05:40:11.616Z,18.35
2023-08-08T05:42:40.411Z,18.31
2023-08-08T05:45:09.833Z,18.29
2023-08-08T05:47:38.469Z,18.32
2023-08-08T05:50:08.179Z,18.41
2023-08-08T05:52:36.758Z,18.53
2023-08-08T05:55:06.064Z,18.68
2023-08-08T05:57:34.743Z,18.81
2023-08-08T06:00:04.635Z,18.88
2023-08-08T06:02:41.260Z,18.80
2023-08-08T06:05:10.379Z,18.82
2023-08-08T06:07:39.450Z,18.78
2023-08-08T06:10:09.515Z,18.75
2023-08-08T06:12:38.214Z,18.72
2023-08-08T06:15:07.972Z,18.74
2023-08-08T06:17:36.617Z,18.73
2023-08-08T06:20:08.186Z,18.67
2023-08-08T06:22:36.981Z,18.69
2023-08-08T06:25:06.369Z,18.76
2023-08-08T06:27:35.037Z,18.82
2023-08-08T06:30:04.349Z,18.93
2023-08-08T06:32:33.052Z,19.03
2023-08-08T06:35:01.805Z,19.07
2023-08-08T06:37:30.629Z,18.98
2023-08-08T06:39:59.225Z,18.93
2023-08-08T06:42:27.839Z,18.87
2023-08-08T06:44:58.330Z,18.96
2023-08-08T06:47:27.034Z,18.87
2023-08-08T06:49:55.812Z,18.85
2023-08-08T06:52:24.459Z,18.85
2023-08-08T06:54:53.068Z,18.96
2023-08-08T06:57:21.665Z,19.09
2023-08-08T06:59:52.131Z,19.16
2023-08-08T07:02:22.240Z,19.25
2023-08-08T07:04:51.415Z,19.33
2023-08-08T07:07:20.032Z,19.47
2023-08-08T07:09:50.126Z,19.62
2023-08-08T07:12:18.769Z,19.81
2023-08-08T07:14:47.364Z,20.00
2023-08-08T07:17:15.953Z,20.14
2023-08-08T07:19:44.737Z,20.26
2023-08-08T07:22:13.434Z,20.21
2023-08-08T07:24:42.126Z,20.28
2023-08-08T07:27:10.698Z,20.52
2023-08-08T07:29:39.381Z,20.67
2023-08-08T07:32:08.371Z,20.68
2023-08-08T07:34:37.061Z,20.65
2023-08-08T07:37:06.046Z,20.73
2023-08-08T07:39:34.950Z,20.78
2023-08-08T07:42:03.873Z,20.76
2023-08-08T07:44:33.927Z,20.62
2023-08-08T07:47:02.552Z,20.60
2023-08-08T07:49:31.176Z,20.67
2023-08-08T07:52:00.074Z,20.82
2023-08-08T07:54:28.879Z,20.84
2023-08-08T07:56:57.486Z,20.89
2023-08-08T07:59:26.099Z,20.81
2023-08-08T08:01:54.808Z,20.87
2023-08-08T08:04:23.485Z,20.93
2023-08-08T08:06:52.042Z,20.93
2023-08-08T08:09:20.596Z,20.98
2023-08-08T08:11:49.183Z,20.94
2023-08-08T08:14:17.858Z,20.96
2023-08-08T08:16:47.045Z,20.96
2023-08-08T08:19:15.672Z,20.93
2023-08-08T08:21:44.565Z,20.90
2023-08-08T08:24:13.144Z,20.84
2023-08-08T08:26:41.730Z,20.94
2023-08-08T08:29:10.295Z,20.69
2023-08-08T08:31:39.662Z,20.66
2023-08-08T08:34:08.293Z,20.69
2023-08-08T08:36:36.914Z,20.59
2023-08-08T08:39:05.613Z,20.54
2023-08-08T08:41:37.872Z,20.47
2023-08-08T08:44:09.632Z,20.43
2023-08-08T08:46:39.429Z,20.27
2023-08-08T08:49:10.143Z,20.29
2023-08-08T08:51:38.780Z,20.35
2023-08-08T08:54:07.696Z,20.50
2023-08-08T08:56:36.287Z,20.59
2023-08-08T08:59:06.302Z,20.80
2023-08-08T09:01:35.047Z,20.89
2023-08-08T09:04:05.215Z,21.11
2023-08-08T09:06:34.107Z,21.22
2023-08-08T09:09:15.326Z,21.31
2023-08-08T09:11:48.753Z,21.21
2023-08-08T09:14:23.524Z,21.16
2023-08-08T09:16:57.184Z,21.11
2023-08-08T09:19:26.286Z,21.09
2023-08-08T09:21:54.946Z,21.11
2023-08-08T09:24:23.926Z,21.19
2023-08-08T09:26:52.504Z,21.18
2023-08-08T09:29:21.382Z,21.21
2023-08-08T09:31:50.890Z,21.20
2023-08-08T09:34:19.400Z,21.47
2023-08-08T09:36:48.600Z,21.57
2023-08-08T09:39:17.952Z,21.49
2023-08-08T09:41:48.276Z,21.40
2023-08-08T09:44:16.994Z,21.21
2023-08-08T09:46:45.614Z,21.37
2023-08-08T09:49:15.839Z,21.44
2023-08-08T09:51:45.040Z,21.43
2023-08-08T09:54:15.186Z,21.55
2023-08-08T09:56:45.080Z,21.79
2023-08-08T09:59:14.433Z,22.01
2023-08-08T10:01:43.672Z,22.28
2023-08-08T10:04:14.542Z,22.25
2023-08-08T10:06:43.167Z,22.33
2023-08-08T10:09:12.942Z,22.13
2023-08-08T10:11:43.845Z,21.90
2023-08-08T10:14:12.639Z,22.09
2023-08-08T10:16:46.875Z,22.14
2023-08-08T10:19:24.306Z,22.17
2023-08-08T10:22:05.432Z,22.17
2023-08-08T10:24:38.327Z,22.20
2023-08-08T10:27:07.119Z,22.14
2023-08-08T10:29:40.622Z,22.10
2023-08-08T10:32:09.578Z,22.07
2023-08-08T10:34:47.647Z,22.16
2023-08-08T10:37:19.323Z,22.16
2023-08-08T10:40:01.661Z,22.10
2023-08-08T10:42:32.313Z,21.91
2023-08-08T10:45:03.943Z,21.78
2023-08-08T10:47:36.734Z,21.54
2023-08-08T10:50:10.489Z,21.38
2023-08-08T10:52:54.892Z,21.44
2023-08-08T10:55:36.045Z,21.64
2023-08-08T10:58:15.470Z,21.81
2023-08-08T11:00:44.705Z,21.72
2023-08-08T11:03:13.764Z,21.55
2023-08-08T11:05:46.050Z,21.68
2023-08-08T11:08:14.993Z,21.95
2023-08-08T11:10:43.705Z,22.11
2023-08-08T11:13:12.286Z,22.27
2023-08-08T11:15:41.094Z,22.35
2023-08-08T11:18:10.943Z,22.45
2023-08-08T11:20:40.874Z,22.59
2023-08-08T11:23:11.936Z,22.85
2023-08-08T11:25:46.239Z,23.04
2023-08-08T11:28:15.731Z,23.05
2023-08-08T11:30:46.878Z,22.82
2023-08-08T11:33:16.967Z,22.49
2023-08-08T11:35:50.263Z,22.51
2023-08-08T11:38:19.265Z,22.10
2023-08-08T11:40:48.095Z,22.22
2023-08-08T11:43:18.628Z,22.53
2023-08-08T11:45:50.593Z,22.66
2023-08-08T11:48:22.959Z,22.87
2023-08-08T11:50:54.362Z,22.80
2023-08-08T11:53:24.856Z,22.97
2023-08-08T11:55:53.522Z,23.17
2023-08-08T11:58:25.139Z,23.17
2023-08-08T12:00:55.709Z,23.31
2023-08-08T12:03:27.715Z,23.49
2023-08-08T12:05:56.497Z,23.57
2023-08-08T12:08:25.336Z,23.60
2023-08-08T12:10:55.561Z,23.71
2023-08-08T12:13:28.095Z,23.87
2023-08-08T12:15:56.874Z,23.82
2023-08-08T12:18:25.726Z,23.99
2023-08-08T12:20:54.454Z,23.85
2023-08-08T12:23:23.065Z,24.36
2023-08-08T12:25:52.029Z,24.88
2023-08-08T12:28:20.638Z,25.28
2023-08-08T12:30:49.299Z,26.17
2023-08-08T12:33:18.073Z,26.78
2023-08-08T12:35:46.672Z,26.50
2023-08-08T12:38:15.828Z,27.30
2023-08-08T12:40:44.449Z,27.83
2023-08-08T12:43:18.834Z,27.28
2023-08-08T12:45:48.996Z,26.89
2023-08-08T12:48:17.704Z,27.08
2023-08-08T12:50:46.388Z,27.06
2023-08-08T12:53:15.031Z,26.96
2023-08-08T12:55:43.675Z,26.51
2023-08-08T12:58:12.380Z,25.80
2023-08-08T13:00:41.064Z,25.66
2023-08-08T13:03:10.760Z,25.99
2023-08-08T13:05:40.050Z,25.78
2023-08-08T13:08:08.740Z,25.95
2023-08-08T13:10:37.992Z,26.94
2023-08-08T13:13:07.132Z,27.71
2023-08-08T13:15:36.518Z,28.62
2023-08-08T13:18:06.378Z,29.81
2023-08-08T13:20:35.116Z,29.70
2023-08-08T13:23:05.391Z,29.01
2023-08-08T13:25:35.567Z,29.75
2023-08-08T13:28:04.604Z,29.52
2023-08-08T13:30:34.375Z,29.63
2023-08-08T13:33:03.473Z,29.53
2023-08-08T13:35:32.257Z,29.85
2023-08-08T13:38:01.116Z,30.00
2023-08-08T13:40:29.771Z,29.28
2023-08-08T13:42:58.387Z,29.17
2023-08-08T13:45:27.052Z,29.73
2023-08-08T13:47:56.135Z,29.39
2023-08-08T13:50:24.783Z,28.54
2023-08-08T13:52:54.544Z,28.39
2023-08-08T13:55:23.342Z,27.93
2023-08-08T13:57:52.027Z,27.57
2023-08-08T14:00:20.632Z,25.75
2023-08-08T14:02:49.855Z,25.03
2023-08-08T14:05:18.611Z,24.86
2023-08-08T14:07:47.293Z,24.51
2023-08-08T14:10:15.896Z,24.35
2023-08-08T14:12:44.583Z,25.12
2023-08-08T14:15:13.312Z,26.43
2023-08-08T14:17:41.968Z,27.18
2023-08-08T14:20:11.046Z,27.72
2023-08-08T14:22:39.710Z,28.31
2023-08-08T14:25:08.922Z,29.16
2023-08-08T14:27:37.608Z,28.47
2023-08-08T14:30:07.185Z,27.75
2023-08-08T14:32:36.128Z,27.79
2023-08-08T14:35:06.063Z,27.23
2023-08-08T14:37:34.706Z,26.47
2023-08-08T14:40:04.158Z,26.20
2023-08-08T14:42:32.828Z,25.99
2023-08-08T14:45:01.508Z,25.83
2023-08-08T14:47:30.100Z,25.68
2023-08-08T14:49:58.816Z,25.55
2023-08-08T14:52:27.522Z,25.43
2023-08-08T14:54:56.195Z,26.25
2023-08-08T14:57:25.080Z,27.36
2023-08-08T14:59:53.732Z,27.76
2023-08-08T15:02:22.415Z,27.97
2023-08-08T15:04:52.176Z,28.48
2023-08-08T15:07:21.663Z,28.90
2023-08-08T15:09:51.047Z,28.74
2023-08-08T15:12:19.665Z,28.32
2023-08-08T15:14:49.897Z,27.86
2023-08-08T15:17:18.556Z,27.73
2023-08-08T15:19:47.192Z,26.91
2023-08-08T15:22:15.825Z,26.22
2023-08-08T15:24:44.869Z,25.76
2023-08-08T15:27:13.523Z,25.26
2023-08-08T15:29:42.226Z,25.05
2023-08-08T15:32:10.891Z,24.99
2023-08-08T15:34:39.610Z,24.88
2023-08-08T15:37:08.273Z,24.92
2023-08-08T15:39:36.985Z,25.13
2023-08-08T15:42:05.636Z,25.93
2023-08-08T15:44:34.166Z,26.93
2023-08-08T15:47:03.023Z,27.36
2023-08-08T15:49:32.010Z,27.82
2023-08-08T15:52:00.922Z,28.30
2023-08-08T15:54:29.514Z,28.52
2023-08-08T15:56:58.289Z,28.64
2023-08-08T15:59:27.074Z,28.94
2023-08-08T16:01:55.789Z,29.02
2023-08-08T16:04:24.441Z,29.49
2023-08-08T16:06:53.127Z,29.61
2023-08-08T16:09:21.764Z,29.81
2023-08-08T16:11:50.467Z,29.76
2023-08-08T16:14:19.087Z,29.51
2023-08-08T16:16:47.707Z,29.24
2023-08-08T16:19:16.724Z,28.58
2023-08-08T16:21:45.447Z,28.64
2023-08-08T16:24:14.019Z,28.61
2023-08-08T16:26:42.590Z,28.50
2023-08-08T16:29:11.195Z,27.89
2023-08-08T16:31:42.679Z,26.97
2023-08-08T16:34:11.326Z,26.03
2023-08-08T16:36:41.203Z,25.20
2023-08-08T16:39:18.157Z,24.33
2023-08-08T16:41:47.748Z,23.76
2023-08-08T16:44:16.517Z,23.28
2023-08-08T16:46:45.261Z,22.88
2023-08-08T16:49:14.122Z,22.55
2023-08-08T16:51:44.353Z,22.27
2023-08-08T16:54:12.977Z,22.01
2023-08-08T16:56:41.544Z,21.78
2023-08-08T16:59:10.364Z,21.54
2023-08-08T17:01:42.501Z,21.32
2023-08-08T17:04:16.344Z,21.12
2023-08-08T17:06:45.039Z,20.93
2023-08-08T17:09:14.564Z,20.74
2023-08-08T17:11:43.199Z,20.59
2023-08-08T17:14:11.794Z,20.44
2023-08-08T17:16:41.630Z,20.25
2023-08-08T17:19:11.103Z,20.09
2023-08-08T17:21:39.688Z,19.95
2023-08-08T17:24:08.407Z,19.84
2023-08-08T17:26:38.793Z,19.72
2023-08-08T17:29:07.487Z,19.62
2023-08-08T17:31:36.599Z,19.50
2023-08-08T17:34:07.269Z,19.39
2023-08-08T17:36:36.481Z,19.29
2023-08-08T17:39:05.350Z,19.20
2023-08-08T17:41:34.021Z,19.14
2023-08-08T17:44:03.268Z,19.08
2023-08-08T17:46:31.913Z,19.00
2023-08-08T17:49:00.692Z,18.91
2023-08-08T17:51:29.337Z,18.83
2023-08-08T17:53:57.949Z,18.74
2023-08-08T17:56:26.896Z,18.58
2023-08-08T17:58:55.581Z,18.40
2023-08-08T18:01:24.286Z,18.21
2023-08-08T18:03:53.012Z,18.06
2023-08-08T18:06:21.623Z,17.90
2023-08-08T18:08:50.409Z,17.72
2023-08-08T18:11:19.000Z,17.55
2023-08-08T18:13:49.426Z,17.40
2023-08-08T18:16:18.296Z,17.28
2023-08-08T18:18:46.923Z,17.18
2023-08-08T18:21:15.553Z,17.10
2023-08-08T18:23:44.223Z,17.02
2023-08-08T18:26:18.363Z,16.96
2023-08-08T18:28:47.034Z,16.89
2023-08-08T18:31:15.691Z,16.79
2023-08-08T18:33:44.823Z,16.70
2023-08-08T18:36:13.713Z,16.60
2023-08-08T18:38:43.876Z,16.50
2023-08-08T18:41:12.610Z,16.44
2023-08-08T18:43:41.765Z,16.39
2023-08-08T18:46:10.502Z,16.37
2023-08-08T18:48:39.035Z,16.42
2023-08-08T18:51:07.836Z,16.48
2023-08-08T18:53:37.680Z,16.48
2023-08-08T18:56:06.361Z,16.45
2023-08-08T18:58:35.278Z,16.46
2023-08-08T19:01:05.331Z,16.45
2023-08-08T19:03:34.236Z,16.47
2023-08-08T19:06:04.564Z,16.47
2023-08-08T19:08:33.216Z,16.47
2023-08-08T19:11:01.814Z,16.48
2023-08-08T19:13:30.404Z,16.49
2023-08-08T19:15:58.994Z,16.51
2023-08-08T19:18:27.852Z,16.54
2023-08-08T19:20:56.609Z,16.54
2023-08-08T19:23:25.486Z,16.52
2023-08-08T19:26:02.923Z,16.50
2023-08-08T19:28:31.562Z,16.47
2023-08-08T19:31:00.224Z,16.41
2023-08-08T19:33:30.672Z,16.38
2023-08-08T19:36:01.543Z,16.36
2023-08-08T19:38:30.404Z,16.33
2023-08-08T19:40:59.204Z,16.28
2023-08-08T19:43:27.959Z,16.21
2023-08-08T19:45:57.011Z,16.12
2023-08-08T19:48:25.945Z,16.02
2023-08-08T19:50:54.797Z,15.92
2023-08-08T19:53:23.365Z,15.90
2023-08-08T19:55:54.005Z,15.88
2023-08-08T19:58:22.604Z,15.88
2023-08-08T20:00:51.216Z,15.90
2023-08-08T20:03:19.964Z,15.89
2023-08-08T20:05:48.690Z,15.88
2023-08-08T20:08:17.307Z,15.88
2023-08-08T20:10:46.026Z,15.89
2023-08-08T20:13:15.412Z,15.94
2023-08-08T20:15:44.033Z,15.98
2023-08-08T20:18:12.842Z,15.99
2023-08-08T20:20:41.591Z,16.00
2023-08-08T20:23:10.468Z,16.00
2023-08-08T20:25:39.805Z,15.99
2023-08-08T20:28:08.628Z,15.97
2023-08-08T20:30:38.648Z,15.94
2023-08-08T20:33:07.519Z,15.92
2023-08-08T20:35:36.238Z,15.90
2023-08-08T20:38:04.905Z,15.89
2023-08-08T20:40:33.498Z,15.89
2023-08-08T20:43:02.330Z,15.85
2023-08-08T20:45:31.508Z,15.74
2023-08-08T20:48:00.216Z,15.58
2023-08-08T20:50:29.112Z,15.39
2023-08-08T20:52:57.682Z,15.19
2023-08-08T20:55:26.331Z,15.01
2023-08-08T20:57:55.712Z,14.86
2023-08-08T21:00:24.330Z,14.75
2023-08-08T21:02:53.001Z,14.66
2023-08-08T21:05:21.700Z,14.56
2023-08-08T21:07:50.732Z,14.47
2023-08-08T21:10:19.419Z,14.38
2023-08-08T21:12:48.021Z,14.28
2023-08-08T21:15:16.791Z,14.20
2023-08-08T21:17:47.246Z,14.11
2023-08-08T21:20:17.134Z,14.03
2023-08-08T21:22:45.774Z,13.96
2023-08-08T21:25:15.007Z,13.89
2023-08-08T21:27:43.616Z,13.82
2023-08-08T21:30:12.685Z,13.75
2023-08-08T21:32:41.384Z,13.68
2023-08-08T21:35:10.068Z,13.60
2023-08-08T21:37:39.694Z,13.52
2023-08-08T21:40:09.068Z,13.47
2023-08-08T21:42:38.773Z,13.41
2023-08-08T21:45:07.849Z,13.34
2023-08-08T21:47:36.400Z,13.31
2023-08-08T21:50:05.691Z,13.26
2023-08-08T21:52:34.316Z,13.22
2023-08-08T21:55:02.967Z,13.18
2023-08-08T21:57:32.684Z,13.12
2023-08-08T22:00:01.307Z,13.03
2023-08-08T22:02:30.287Z,12.98
2023-08-08T22:04:58.923Z,12.94
2023-08-08T22:07:27.582Z,12.90
2023-08-08T22:09:56.171Z,12.87
2023-08-08T22:12:25.273Z,12.85
2023-08-08T22:14:54.262Z,12.82
2023-08-08T22:17:22.869Z,12.79
2023-08-08T22:19:52.940Z,12.77
2023-08-08T22:22:21.634Z,12.74
2023-08-08T22:24:50.276Z,12.69
2023-08-08T22:27:18.871Z,12.63
2023-08-08T22:29:47.506Z,12.58
2023-08-08T22:32:16.193Z,12.55
2023-08-08T22:34:44.839Z,12.52
2023-08-08T22:37:13.477Z,12.50
2023-08-08T22:39:42.094Z,12.49
2023-08-08T22:42:10.817Z,12.45
2023-08-08T22:44:39.432Z,12.43
2023-08-08T22:47:08.540Z,12.36
2023-08-08T22:49:37.126Z,12.28
2023-08-08T22:52:05.806Z,12.25
2023-08-08T22:54:34.434Z,12.19
2023-08-08T22:57:03.381Z,12.18
2023-08-08T22:59:32.311Z,12.13
2023-08-08T23:02:01.436Z,12.11
2023-08-08T23:04:30.083Z,12.09
2023-08-08T23:06:58.847Z,12.07
2023-08-08T23:09:29.968Z,12.07
2023-08-08T23:11:58.733Z,12.08
2023-08-08T23:14:27.383Z,12.10
2023-08-08T23:16:56.530Z,12.11
2023-08-08T23:19:26.496Z,12.12
2023-08-08T23:21:55.081Z,12.15
2023-08-08T23:24:23.664Z,12.14
2023-08-08T23:26:52.421Z,12.15
2023-08-08T23:29:21.541Z,12.17
2023-08-08T23:31:50.360Z,12.21
2023-08-08T23:34:19.065Z,12.24
2023-08-08T23:36:47.672Z,12.30
2023-08-08T23:39:19.200Z,12.32
2023-08-08T23:41:47.948Z,12.36
2023-08-08T23:44:16.535Z,12.41
2023-08-08T23:46:45.200Z,12.46
2023-08-08T23:49:13.815Z,12.52
2023-08-08T23:51:44.521Z,12.59
2023-08-08T23:54:13.657Z,12.64
2023-08-08T23:56:42.385Z,12.69
2023-08-08T23:59:11.006Z,12.75
